sensor_id;sensor_type;location;lat;lon;timestamp;temperature;humidity
5689;DHT22;2869;50.432;8.680;2023-07-30T00:00:58;18.30;99.90
5689;DHT22;2869;50.432;8.680;2023-07-30T00:03:25;18.30;99.90
5689;DHT22;2869;50.432;8.680;2023-07-30T00:05:52;18.30;99.90
5689;DHT22;2869;50.432;8.680;2023-07-30T00:08:19;18.30;99.90
5689;DHT22;2869;50.432;8.680;2023-07-30T00:10:47;18.30;99.90
5689;DHT22;2869;50.432;8.680;2023-07-30T00:13:15;18.40;99.90
5689;DHT22;2869;50.432;8.680;2023-07-30T00:15:41;18.50;99.90
5689;DHT22;2869;50.432;8.680;2023-07-30T00:18:08;18.50;99.90
5689;DHT22;2869;50.432;8.680;2023-07-30T00:20:35;18.60;99.90
5689;DHT22;2869;50.432;8.680;2023-07-30T00:23:02;18.70;99.90
5689;DHT22;2869;50.432;8.680;2023-07-30T00:25:28;18.70;99.90
5689;DHT22;2869;50.432;8.680;2023-07-30T00:27:56;18.70;99.90
5689;DHT22;2869;50.432;8.680;2023-07-30T00:30:23;18.80;99.90
5689;DHT22;2869;50.432;8.680;2023-07-30T00:32:50;18.80;99.90
5689;DHT22;2869;50.432;8.680;2023-07-30T00:35:17;18.70;99.90
5689;DHT22;2869;50.432;8.680;2023-07-30T00:37:43;18.70;99.90
5689;DHT22;2869;50.432;8.680;2023-07-30T00:40:11;18.70;99.90
5689;DHT22;2869;50.432;8.680;2023-07-30T00:42:38;18.60;99.90
5689;DHT22;2869;50.432;8.680;2023-07-30T00:45:07;18.60;99.90
5689;DHT22;2869;50.432;8.680;2023-07-30T00:47:34;18.60;99.90
5689;DHT22;2869;50.432;8.680;2023-07-30T00:50:01;18.60;99.90
5689;DHT22;2869;50.432;8.680;2023-07-30T00:52:28;18.60;99.90
5689;DHT22;2869;50.432;8.680;2023-07-30T00:54:57;18.60;99.90
5689;DHT22;2869;50.432;8.680;2023-07-30T00:57:24;18.60;99.90
5689;DHT22;2869;50.432;8.680;2023-07-30T00:59:52;18.80;99.90
5689;DHT22;2869;50.432;8.680;2023-07-30T01:02:21;18.70;99.90
5689;DHT22;2869;50.432;8.680;2023-07-30T01:04:48;18.70;99.90
5689;DHT22;2869;50.432;8.680;2023-07-30T01:07:17;18.70;99.90
5689;DHT22;2869;50.432;8.680;2023-07-30T01:09:43;18.70;99.90
5689;DHT22;2869;50.432;8.680;2023-07-30T01:12:11;18.90;99.90
5689;DHT22;2869;50.432;8.680;2023-07-30T01:14:38;18.70;99.90
5689;DHT22;2869;50.432;8.680;2023-07-30T01:17:05;18.70;99.90
5689;DHT22;2869;50.432;8.680;2023-07-30T01:19:34;18.70;99.90
5689;DHT22;2869;50.432;8.680;2023-07-30T01:22:02;18.90;99.90
5689;DHT22;2869;50.432;8.680;2023-07-30T01:24:29;18.70;99.90
5689;DHT22;2869;50.432;8.680;2023-07-30T01:27:00;18.70;99.90
5689;DHT22;2869;50.432;8.680;2023-07-30T01:29:42;18.70;99.90
5689;DHT22;2869;50.432;8.680;2023-07-30T01:32:13;18.70;99.90
5689;DHT22;2869;50.432;8.680;2023-07-30T01:34:41;18.70;99.90
5689;DHT22;2869;50.432;8.680;2023-07-30T01:37:12;18.70;99.90
5689;DHT22;2869;50.432;8.680;2023-07-30T01:39:40;18.70;99.90
5689;DHT22;2869;50.432;8.680;2023-07-30T01:42:11;18.60;99.90
5689;DHT22;2869;50.432;8.680;2023-07-30T01:44:38;18.60;99.90
5689;DHT22;2869;50.432;8.680;2023-07-30T01:47:05;18.60;99.90
5689;DHT22;2869;50.432;8.680;2023-07-30T01:49:32;18.60;99.90
5689;DHT22;2869;50.432;8.680;2023-07-30T01:51:58;18.50;99.90
5689;DHT22;2869;50.432;8.680;2023-07-30T01:54:26;18.60;99.90
5689;DHT22;2869;50.432;8.680;2023-07-30T01:56:54;18.60;99.90
5689;DHT22;2869;50.432;8.680;2023-07-30T01:59:20;18.50;99.90
5689;DHT22;2869;50.432;8.680;2023-07-30T02:01:47;18.50;99.90
5689;DHT22;2869;50.432;8.680;2023-07-30T02:04:14;18.70;99.90
5689;DHT22;2869;50.432;8.680;2023-07-30T02:06:41;18.40;99.90
5689;DHT22;2869;50.432;8.680;2023-07-30T02:09:08;18.50;99.90
5689;DHT22;2869;50.432;8.680;2023-07-30T02:11:36;18.40;99.90
5689;DHT22;2869;50.432;8.680;2023-07-30T02:14:03;18.40;99.90
5689;DHT22;2869;50.432;8.680;2023-07-30T02:16:29;18.40;99.90
5689;DHT22;2869;50.432;8.680;2023-07-30T02:18:56;18.30;99.90
5689;DHT22;2869;50.432;8.680;2023-07-30T02:21:23;18.30;99.90
5689;DHT22;2869;50.432;8.680;2023-07-30T02:23:49;18.30;99.90
5689;DHT22;2869;50.432;8.680;2023-07-30T02:26:16;18.30;99.90
5689;DHT22;2869;50.432;8.680;2023-07-30T02:28:44;18.30;99.90
5689;DHT22;2869;50.432;8.680;2023-07-30T02:31:11;18.40;99.90
5689;DHT22;2869;50.432;8.680;2023-07-30T02:33:37;18.30;99.90
5689;DHT22;2869;50.432;8.680;2023-07-30T02:36:04;18.30;99.90
5689;DHT22;2869;50.432;8.680;2023-07-30T02:38:31;18.30;99.90
5689;DHT22;2869;50.432;8.680;2023-07-30T02:40:58;18.30;99.90
5689;DHT22;2869;50.432;8.680;2023-07-30T02:43:24;18.30;99.90
5689;DHT22;2869;50.432;8.680;2023-07-30T02:45:52;18.30;99.90
5689;DHT22;2869;50.432;8.680;2023-07-30T02:48:19;18.30;99.90
5689;DHT22;2869;50.432;8.680;2023-07-30T02:50:46;18.30;99.90
5689;DHT22;2869;50.432;8.680;2023-07-30T02:53:12;18.20;99.90
5689;DHT22;2869;50.432;8.680;2023-07-30T02:55:39;18.20;99.90
5689;DHT22;2869;50.432;8.680;2023-07-30T02:58:06;18.20;99.90
5689;DHT22;2869;50.432;8.680;2023-07-30T03:00:32;18.20;99.90
5689;DHT22;2869;50.432;8.680;2023-07-30T03:03:00;18.20;99.90
5689;DHT22;2869;50.432;8.680;2023-07-30T03:05:27;18.40;99.90
5689;DHT22;2869;50.432;8.680;2023-07-30T03:07:54;18.20;99.90
5689;DHT22;2869;50.432;8.680;2023-07-30T03:10:21;18.20;99.90
5689;DHT22;2869;50.432;8.680;2023-07-30T03:12:47;18.10;99.90
5689;DHT22;2869;50.432;8.680;2023-07-30T03:15:14;18.10;99.90
5689;DHT22;2869;50.432;8.680;2023-07-30T03:17:41;18.10;99.90
5689;DHT22;2869;50.432;8.680;2023-07-30T03:20:09;18.10;99.90
5689;DHT22;2869;50.432;8.680;2023-07-30T03:22:36;18.10;99.90
5689;DHT22;2869;50.432;8.680;2023-07-30T03:25:03;18.10;99.90
5689;DHT22;2869;50.432;8.680;2023-07-30T03:27:30;18.10;99.90
5689;DHT22;2869;50.432;8.680;2023-07-30T03:29:57;18.10;99.90
5689;DHT22;2869;50.432;8.680;2023-07-30T03:32:24;18.10;99.90
5689;DHT22;2869;50.432;8.680;2023-07-30T03:34:50;18.10;99.90
5689;DHT22;2869;50.432;8.680;2023-07-30T03:37:18;18.10;99.90
5689;DHT22;2869;50.432;8.680;2023-07-30T03:39:45;18.00;99.90
5689;DHT22;2869;50.432;8.680;2023-07-30T03:42:12;18.00;99.90
5689;DHT22;2869;50.432;8.680;2023-07-30T03:44:38;18.00;99.90
5689;DHT22;2869;50.432;8.680;2023-07-30T03:47:05;18.00;99.90
5689;DHT22;2869;50.432;8.680;2023-07-30T03:49:32;17.90;99.90
5689;DHT22;2869;50.432;8.680;2023-07-30T03:51:59;17.90;99.90
5689;DHT22;2869;50.432;8.680;2023-07-30T03:54:27;17.90;99.90
5689;DHT22;2869;50.432;8.680;2023-07-30T03:56:54;18.00;99.90
5689;DHT22;2869;50.432;8.680;2023-07-30T03:59:21;17.80;99.90
5689;DHT22;2869;50.432;8.680;2023-07-30T04:01:47;17.80;99.90
5689;DHT22;2869;50.432;8.680;2023-07-30T04:04:14;17.80;99.90
5689;DHT22;2869;50.432;8.680;2023-07-30T04:06:41;17.80;99.90
5689;DHT22;2869;50.432;8.680;2023-07-30T04:09:07;17.80;99.90
5689;DHT22;2869;50.432;8.680;2023-07-30T04:11:35;17.80;99.90
5689;DHT22;2869;50.432;8.680;2023-07-30T04:14:02;17.70;99.90
5689;DHT22;2869;50.432;8.680;2023-07-30T04:16:30;17.70;99.90
5689;DHT22;2869;50.432;8.680;2023-07-30T04:18:57;17.70;99.90
5689;DHT22;2869;50.432;8.680;2023-07-30T04:21:24;17.60;99.90
5689;DHT22;2869;50.432;8.680;2023-07-30T04:23:50;17.70;99.90
5689;DHT22;2869;50.432;8.680;2023-07-30T04:26:17;17.70;99.90
5689;DHT22;2869;50.432;8.680;2023-07-30T04:28:45;17.70;99.90
5689;DHT22;2869;50.432;8.680;2023-07-30T04:31:12;17.60;99.90
5689;DHT22;2869;50.432;8.680;2023-07-30T04:33:39;17.60;99.90
5689;DHT22;2869;50.432;8.680;2023-07-30T04:36:05;17.60;99.90
5689;DHT22;2869;50.432;8.680;2023-07-30T04:38:33;17.60;99.90
5689;DHT22;2869;50.432;8.680;2023-07-30T04:40:59;17.60;99.90
5689;DHT22;2869;50.432;8.680;2023-07-30T04:43:26;17.60;99.90
5689;DHT22;2869;50.432;8.680;2023-07-30T04:45:54;17.70;99.90
5689;DHT22;2869;50.432;8.680;2023-07-30T04:48:21;17.60;99.90
5689;DHT22;2869;50.432;8.680;2023-07-30T04:50:47;17.60;99.90
5689;DHT22;2869;50.432;8.680;2023-07-30T04:53:14;17.60;99.90
5689;DHT22;2869;50.432;8.680;2023-07-30T04:55:42;17.60;99.90
5689;DHT22;2869;50.432;8.680;2023-07-30T04:58:09;17.60;99.90
5689;DHT22;2869;50.432;8.680;2023-07-30T05:00:35;17.60;99.90
5689;DHT22;2869;50.432;8.680;2023-07-30T05:03:03;17.60;99.90
5689;DHT22;2869;50.432;8.680;2023-07-30T05:05:30;17.50;99.90
5689;DHT22;2869;50.432;8.680;2023-07-30T05:07:57;17.50;99.90
5689;DHT22;2869;50.432;8.680;2023-07-30T05:10:24;17.50;99.90
5689;DHT22;2869;50.432;8.680;2023-07-30T05:12:50;17.40;99.90
5689;DHT22;2869;50.432;8.680;2023-07-30T05:15:17;17.50;99.90
5689;DHT22;2869;50.432;8.680;2023-07-30T05:17:44;17.50;99.90
5689;DHT22;2869;50.432;8.680;2023-07-30T05:20:12;17.50;99.90
5689;DHT22;2869;50.432;8.680;2023-07-30T05:22:39;17.50;99.90
5689;DHT22;2869;50.432;8.680;2023-07-30T05:25:06;17.60;99.90
5689;DHT22;2869;50.432;8.680;2023-07-30T05:27:33;17.70;99.90
5689;DHT22;2869;50.432;8.680;2023-07-30T05:29:59;17.70;99.90
5689;DHT22;2869;50.432;8.680;2023-07-30T05:32:26;17.80;99.90
5689;DHT22;2869;50.432;8.680;2023-07-30T05:34:53;17.90;99.90
5689;DHT22;2869;50.432;8.680;2023-07-30T05:37:21;18.00;99.90
5689;DHT22;2869;50.432;8.680;2023-07-30T05:39:48;18.10;99.90
5689;DHT22;2869;50.432;8.680;2023-07-30T05:42:15;18.20;99.90
5689;DHT22;2869;50.432;8.680;2023-07-30T05:44:41;18.40;99.90
5689;DHT22;2869;50.432;8.680;2023-07-30T05:47:08;18.60;99.90
5689;DHT22;2869;50.432;8.680;2023-07-30T05:49:35;18.60;99.90
5689;DHT22;2869;50.432;8.680;2023-07-30T05:52:02;18.60;99.90
5689;DHT22;2869;50.432;8.680;2023-07-30T05:54:30;18.70;99.90
5689;DHT22;2869;50.432;8.680;2023-07-30T05:56:56;19.00;99.90
5689;DHT22;2869;50.432;8.680;2023-07-30T05:59:23;18.90;99.90
5689;DHT22;2869;50.432;8.680;2023-07-30T06:01:50;19.00;99.90
5689;DHT22;2869;50.432;8.680;2023-07-30T06:04:16;19.20;99.90
5689;DHT22;2869;50.432;8.680;2023-07-30T06:06:43;19.20;99.90
5689;DHT22;2869;50.432;8.680;2023-07-30T06:09:10;19.40;99.90
5689;DHT22;2869;50.432;8.680;2023-07-30T06:11:39;19.50;99.90
5689;DHT22;2869;50.432;8.680;2023-07-30T06:14:05;19.70;99.90
5689;DHT22;2869;50.432;8.680;2023-07-30T06:16:32;20.00;99.90
5689;DHT22;2869;50.432;8.680;2023-07-30T06:18:59;20.10;99.90
5689;DHT22;2869;50.432;8.680;2023-07-30T06:21:25;20.00;99.90
5689;DHT22;2869;50.432;8.680;2023-07-30T06:23:52;20.10;99.90
5689;DHT22;2869;50.432;8.680;2023-07-30T06:26:19;20.10;99.90
5689;DHT22;2869;50.432;8.680;2023-07-30T06:28:47;20.10;99.90
5689;DHT22;2869;50.432;8.680;2023-07-30T06:31:13;20.10;99.90
5689;DHT22;2869;50.432;8.680;2023-07-30T06:33:40;20.30;99.90
5689;DHT22;2869;50.432;8.680;2023-07-30T06:36:07;20.40;99.90
5689;DHT22;2869;50.432;8.680;2023-07-30T06:38:33;20.50;99.90
5689;DHT22;2869;50.432;8.680;2023-07-30T06:41:00;20.80;99.90
5689;DHT22;2869;50.432;8.680;2023-07-30T06:43:27;20.80;99.90
5689;DHT22;2869;50.432;8.680;2023-07-30T06:45:55;20.80;99.90
5689;DHT22;2869;50.432;8.680;2023-07-30T06:48:22;20.80;99.90
5689;DHT22;2869;50.432;8.680;2023-07-30T06:50:49;20.90;99.90
5689;DHT22;2869;50.432;8.680;2023-07-30T06:53:15;21.10;99.90
5689;DHT22;2869;50.432;8.680;2023-07-30T06:55:42;21.20;99.90
5689;DHT22;2869;50.432;8.680;2023-07-30T06:58:10;21.50;99.90
5689;DHT22;2869;50.432;8.680;2023-07-30T07:00:37;21.80;99.90
5689;DHT22;2869;50.432;8.680;2023-07-30T07:03:05;21.90;99.90
5689;DHT22;2869;50.432;8.680;2023-07-30T07:05:32;21.90;99.90
5689;DHT22;2869;50.432;8.680;2023-07-30T07:07:58;21.70;99.90
5689;DHT22;2869;50.432;8.680;2023-07-30T07:10:25;21.40;99.90
5689;DHT22;2869;50.432;8.680;2023-07-30T07:12:52;21.20;99.90
5689;DHT22;2869;50.432;8.680;2023-07-30T07:15:19;21.10;99.90
5689;DHT22;2869;50.432;8.680;2023-07-30T07:17:45;20.90;99.90
5689;DHT22;2869;50.432;8.680;2023-07-30T07:20:13;20.90;99.90
5689;DHT22;2869;50.432;8.680;2023-07-30T07:22:40;21.10;99.90
5689;DHT22;2869;50.432;8.680;2023-07-30T07:25:08;21.20;99.90
5689;DHT22;2869;50.432;8.680;2023-07-30T07:27:34;21.30;99.90
5689;DHT22;2869;50.432;8.680;2023-07-30T07:30:01;21.40;99.90
5689;DHT22;2869;50.432;8.680;2023-07-30T07:32:28;21.30;99.90
5689;DHT22;2869;50.432;8.680;2023-07-30T07:34:55;21.40;99.90
5689;DHT22;2869;50.432;8.680;2023-07-30T07:37:23;21.20;99.90
5689;DHT22;2869;50.432;8.680;2023-07-30T07:39:49;21.00;99.90
5689;DHT22;2869;50.432;8.680;2023-07-30T07:42:17;20.80;99.90
5689;DHT22;2869;50.432;8.680;2023-07-30T07:44:43;20.60;99.90
5689;DHT22;2869;50.432;8.680;2023-07-30T07:47:11;20.50;99.90
5689;DHT22;2869;50.432;8.680;2023-07-30T07:49:38;20.30;99.90
5689;DHT22;2869;50.432;8.680;2023-07-30T07:52:05;20.10;99.90
5689;DHT22;2869;50.432;8.680;2023-07-30T07:54:33;20.00;99.90
5689;DHT22;2869;50.432;8.680;2023-07-30T07:57:00;19.90;99.90
5689;DHT22;2869;50.432;8.680;2023-07-30T07:59:27;19.90;99.90
5689;DHT22;2869;50.432;8.680;2023-07-30T08:01:54;20.00;99.90
5689;DHT22;2869;50.432;8.680;2023-07-30T08:04:20;20.00;99.90
5689;DHT22;2869;50.432;8.680;2023-07-30T08:06:47;20.20;99.90
5689;DHT22;2869;50.432;8.680;2023-07-30T08:09:14;20.30;99.90
5689;DHT22;2869;50.432;8.680;2023-07-30T08:11:42;20.50;99.90
5689;DHT22;2869;50.432;8.680;2023-07-30T08:14:09;20.60;99.90
5689;DHT22;2869;50.432;8.680;2023-07-30T08:16:36;20.70;99.90
5689;DHT22;2869;50.432;8.680;2023-07-30T08:19:02;20.80;99.90
5689;DHT22;2869;50.432;8.680;2023-07-30T08:21:29;20.80;99.90
5689;DHT22;2869;50.432;8.680;2023-07-30T08:23:56;20.80;99.90
5689;DHT22;2869;50.432;8.680;2023-07-30T08:26:22;20.80;99.90
5689;DHT22;2869;50.432;8.680;2023-07-30T08:28:50;20.70;99.90
5689;DHT22;2869;50.432;8.680;2023-07-30T08:31:17;20.70;99.90
5689;DHT22;2869;50.432;8.680;2023-07-30T08:33:44;20.60;99.90
5689;DHT22;2869;50.432;8.680;2023-07-30T08:36:10;20.50;99.90
5689;DHT22;2869;50.432;8.680;2023-07-30T08:38:37;20.50;99.90
5689;DHT22;2869;50.432;8.680;2023-07-30T08:41:04;20.40;99.90
5689;DHT22;2869;50.432;8.680;2023-07-30T08:43:31;20.40;99.90
5689;DHT22;2869;50.432;8.680;2023-07-30T08:45:59;20.50;99.90
5689;DHT22;2869;50.432;8.680;2023-07-30T08:48:26;20.50;99.90
5689;DHT22;2869;50.432;8.680;2023-07-30T08:50:56;20.60;99.90
5689;DHT22;2869;50.432;8.680;2023-07-30T08:53:24;20.50;99.90
5689;DHT22;2869;50.432;8.680;2023-07-30T08:55:51;20.60;99.90
5689;DHT22;2869;50.432;8.680;2023-07-30T08:58:19;20.80;99.90
5689;DHT22;2869;50.432;8.680;2023-07-30T09:00:46;20.70;99.90
5689;DHT22;2869;50.432;8.680;2023-07-30T09:03:17;20.70;99.90
5689;DHT22;2869;50.432;8.680;2023-07-30T09:05:44;20.60;99.90
5689;DHT22;2869;50.432;8.680;2023-07-30T09:08:11;20.60;99.90
5689;DHT22;2869;50.432;8.680;2023-07-30T09:10:38;20.70;99.90
5689;DHT22;2869;50.432;8.680;2023-07-30T09:13:05;20.80;99.90
5689;DHT22;2869;50.432;8.680;2023-07-30T09:15:33;20.80;99.90
5689;DHT22;2869;50.432;8.680;2023-07-30T09:18:00;20.80;99.90
5689;DHT22;2869;50.432;8.680;2023-07-30T09:20:28;20.80;99.90
5689;DHT22;2869;50.432;8.680;2023-07-30T09:23:02;20.70;99.90
5689;DHT22;2869;50.432;8.680;2023-07-30T09:25:29;20.70;99.90
5689;DHT22;2869;50.432;8.680;2023-07-30T09:27:56;20.60;99.90
5689;DHT22;2869;50.432;8.680;2023-07-30T09:30:25;20.70;99.90
5689;DHT22;2869;50.432;8.680;2023-07-30T09:32:53;20.60;99.90
5689;DHT22;2869;50.432;8.680;2023-07-30T09:35:20;20.70;99.90
5689;DHT22;2869;50.432;8.680;2023-07-30T09:37:48;20.60;99.90
5689;DHT22;2869;50.432;8.680;2023-07-30T09:40:16;20.60;99.90
5689;DHT22;2869;50.432;8.680;2023-07-30T09:42:45;20.60;99.90
5689;DHT22;2869;50.432;8.680;2023-07-30T09:45:21;20.60;99.90
5689;DHT22;2869;50.432;8.680;2023-07-30T09:47:48;20.40;99.90
5689;DHT22;2869;50.432;8.680;2023-07-30T09:50:15;20.30;99.90
5689;DHT22;2869;50.432;8.680;2023-07-30T09:52:42;19.70;99.90
5689;DHT22;2869;50.432;8.680;2023-07-30T09:55:11;19.10;99.90
5689;DHT22;2869;50.432;8.680;2023-07-30T09:57:38;18.60;99.90
5689;DHT22;2869;50.432;8.680;2023-07-30T10:00:06;18.40;99.90
5689;DHT22;2869;50.432;8.680;2023-07-30T10:02:37;18.00;99.90
5689;DHT22;2869;50.432;8.680;2023-07-30T10:05:08;17.80;99.90
5689;DHT22;2869;50.432;8.680;2023-07-30T10:07:39;17.60;99.90
5689;DHT22;2869;50.432;8.680;2023-07-30T10:10:08;17.50;99.90
5689;DHT22;2869;50.432;8.680;2023-07-30T10:12:37;17.40;99.90
5689;DHT22;2869;50.432;8.680;2023-07-30T10:15:06;17.40;99.90
5689;DHT22;2869;50.432;8.680;2023-07-30T10:17:33;17.40;99.90
5689;DHT22;2869;50.432;8.680;2023-07-30T10:20:21;17.40;99.90
5689;DHT22;2869;50.432;8.680;2023-07-30T10:22:51;17.40;99.90
5689;DHT22;2869;50.432;8.680;2023-07-30T10:25:21;17.50;99.90
5689;DHT22;2869;50.432;8.680;2023-07-30T10:27:50;17.70;99.90
5689;DHT22;2869;50.432;8.680;2023-07-30T10:30:18;17.80;99.90
5689;DHT22;2869;50.432;8.680;2023-07-30T10:32:59;18.00;99.90
5689;DHT22;2869;50.432;8.680;2023-07-30T10:35:37;18.20;99.90
5689;DHT22;2869;50.432;8.680;2023-07-30T10:38:17;18.20;99.90
5689;DHT22;2869;50.432;8.680;2023-07-30T10:41:00;18.20;99.90
5689;DHT22;2869;50.432;8.680;2023-07-30T10:43:29;18.20;99.90
5689;DHT22;2869;50.432;8.680;2023-07-30T10:45:56;18.20;99.90
5689;DHT22;2869;50.432;8.680;2023-07-30T10:48:30;18.60;99.90
5689;DHT22;2869;50.432;8.680;2023-07-30T10:50:57;18.70;99.90
5689;DHT22;2869;50.432;8.680;2023-07-30T10:53:24;18.80;99.90
5689;DHT22;2869;50.432;8.680;2023-07-30T10:55:50;18.90;99.90
5689;DHT22;2869;50.432;8.680;2023-07-30T10:58:18;18.90;99.90
5689;DHT22;2869;50.432;8.680;2023-07-30T11:00:46;18.90;99.90
5689;DHT22;2869;50.432;8.680;2023-07-30T11:03:13;19.00;99.90
5689;DHT22;2869;50.432;8.680;2023-07-30T11:05:39;19.00;99.90
5689;DHT22;2869;50.432;8.680;2023-07-30T11:08:06;19.20;99.90
5689;DHT22;2869;50.432;8.680;2023-07-30T11:10:41;19.40;99.90
5689;DHT22;2869;50.432;8.680;2023-07-30T11:13:08;19.80;99.90
5689;DHT22;2869;50.432;8.680;2023-07-30T11:15:40;20.10;99.90
5689;DHT22;2869;50.432;8.680;2023-07-30T11:18:09;20.50;99.90
5689;DHT22;2869;50.432;8.680;2023-07-30T11:20:36;20.50;99.90
5689;DHT22;2869;50.432;8.680;2023-07-30T11:23:16;20.90;99.90
5689;DHT22;2869;50.432;8.680;2023-07-30T11:25:45;21.00;99.90
5689;DHT22;2869;50.432;8.680;2023-07-30T11:28:12;21.10;99.90
5689;DHT22;2869;50.432;8.680;2023-07-30T11:30:39;20.80;99.90
5689;DHT22;2869;50.432;8.680;2023-07-30T11:33:05;20.70;99.90
5689;DHT22;2869;50.432;8.680;2023-07-30T11:35:33;20.60;99.90
5689;DHT22;2869;50.432;8.680;2023-07-30T11:38:01;20.30;99.90
5689;DHT22;2869;50.432;8.680;2023-07-30T11:40:27;20.40;99.90
5689;DHT22;2869;50.432;8.680;2023-07-30T11:42:54;20.30;99.90
5689;DHT22;2869;50.432;8.680;2023-07-30T11:45:22;20.30;99.90
5689;DHT22;2869;50.432;8.680;2023-07-30T11:47:49;20.50;99.90
5689;DHT22;2869;50.432;8.680;2023-07-30T11:50:16;20.50;99.90
5689;DHT22;2869;50.432;8.680;2023-07-30T11:52:54;20.60;99.90
5689;DHT22;2869;50.432;8.680;2023-07-30T11:55:22;20.30;99.90
5689;DHT22;2869;50.432;8.680;2023-07-30T11:57:49;20.20;99.90
5689;DHT22;2869;50.432;8.680;2023-07-30T12:00:16;19.90;99.90
5689;DHT22;2869;50.432;8.680;2023-07-30T12:02:46;19.60;99.90
5689;DHT22;2869;50.432;8.680;2023-07-30T12:05:13;19.40;99.90
5689;DHT22;2869;50.432;8.680;2023-07-30T12:07:43;19.30;99.90
5689;DHT22;2869;50.432;8.680;2023-07-30T12:10:12;19.30;99.90
5689;DHT22;2869;50.432;8.680;2023-07-30T12:12:43;19.30;99.90
5689;DHT22;2869;50.432;8.680;2023-07-30T12:15:11;19.30;99.90
5689;DHT22;2869;50.432;8.680;2023-07-30T12:17:38;19.20;99.90
5689;DHT22;2869;50.432;8.680;2023-07-30T12:20:06;19.10;99.90
5689;DHT22;2869;50.432;8.680;2023-07-30T12:22:33;19.10;99.90
5689;DHT22;2869;50.432;8.680;2023-07-30T12:25:00;19.20;99.90
5689;DHT22;2869;50.432;8.680;2023-07-30T12:27:29;19.30;99.90
5689;DHT22;2869;50.432;8.680;2023-07-30T12:29:56;19.30;99.90
5689;DHT22;2869;50.432;8.680;2023-07-30T12:32:22;19.60;99.90
5689;DHT22;2869;50.432;8.680;2023-07-30T12:34:49;19.80;99.90
5689;DHT22;2869;50.432;8.680;2023-07-30T12:37:16;19.90;99.90
5689;DHT22;2869;50.432;8.680;2023-07-30T12:39:43;20.60;99.90
5689;DHT22;2869;50.432;8.680;2023-07-30T12:42:10;21.10;99.90
5689;DHT22;2869;50.432;8.680;2023-07-30T12:44:38;21.80;99.90
5689;DHT22;2869;50.432;8.680;2023-07-30T12:47:05;22.10;99.90
5689;DHT22;2869;50.432;8.680;2023-07-30T12:49:31;21.90;99.90
5689;DHT22;2869;50.432;8.680;2023-07-30T12:51:58;21.80;99.90
5689;DHT22;2869;50.432;8.680;2023-07-30T12:54:25;21.90;99.90
5689;DHT22;2869;50.432;8.680;2023-07-30T12:56:51;22.20;99.90
5689;DHT22;2869;50.432;8.680;2023-07-30T12:59:18;22.40;99.90
5689;DHT22;2869;50.432;8.680;2023-07-30T13:01:46;22.30;99.90
5689;DHT22;2869;50.432;8.680;2023-07-30T13:04:13;22.10;99.90
5689;DHT22;2869;50.432;8.680;2023-07-30T13:06:39;22.00;99.90
5689;DHT22;2869;50.432;8.680;2023-07-30T13:09:06;21.70;99.90
5689;DHT22;2869;50.432;8.680;2023-07-30T13:11:33;21.70;99.90
5689;DHT22;2869;50.432;8.680;2023-07-30T13:13:59;21.70;99.90
5689;DHT22;2869;50.432;8.680;2023-07-30T13:16:26;21.80;99.90
5689;DHT22;2869;50.432;8.680;2023-07-30T13:18:54;21.80;99.90
5689;DHT22;2869;50.432;8.680;2023-07-30T13:21:22;22.20;99.90
5689;DHT22;2869;50.432;8.680;2023-07-30T13:23:49;22.50;99.90
5689;DHT22;2869;50.432;8.680;2023-07-30T13:26:15;22.40;99.90
5689;DHT22;2869;50.432;8.680;2023-07-30T13:28:42;22.50;99.90
5689;DHT22;2869;50.432;8.680;2023-07-30T13:31:09;22.60;99.90
5689;DHT22;2869;50.432;8.680;2023-07-30T13:33:36;22.70;99.90
5689;DHT22;2869;50.432;8.680;2023-07-30T13:36:05;22.80;99.90
5689;DHT22;2869;50.432;8.680;2023-07-30T13:38:31;23.30;99.90
5689;DHT22;2869;50.432;8.680;2023-07-30T13:40:58;23.40;99.90
5689;DHT22;2869;50.432;8.680;2023-07-30T13:43:25;23.10;99.90
5689;DHT22;2869;50.432;8.680;2023-07-30T13:45:51;23.10;99.90
5689;DHT22;2869;50.432;8.680;2023-07-30T13:48:19;23.40;99.90
5689;DHT22;2869;50.432;8.680;2023-07-30T13:50:45;23.80;99.90
5689;DHT22;2869;50.432;8.680;2023-07-30T13:53:13;23.90;99.90
5689;DHT22;2869;50.432;8.680;2023-07-30T13:55:40;23.90;99.90
5689;DHT22;2869;50.432;8.680;2023-07-30T13:58:09;23.20;99.90
5689;DHT22;2869;50.432;8.680;2023-07-30T14:00:35;23.10;99.90
5689;DHT22;2869;50.432;8.680;2023-07-30T14:03:02;23.10;99.90
5689;DHT22;2869;50.432;8.680;2023-07-30T14:05:29;23.20;99.90
5689;DHT22;2869;50.432;8.680;2023-07-30T14:07:56;23.20;99.90
5689;DHT22;2869;50.432;8.680;2023-07-30T14:10:24;23.50;99.90
5689;DHT22;2869;50.432;8.680;2023-07-30T14:12:52;23.80;99.90
5689;DHT22;2869;50.432;8.680;2023-07-30T14:15:18;24.00;99.90
5689;DHT22;2869;50.432;8.680;2023-07-30T14:17:45;23.80;99.90
5689;DHT22;2869;50.432;8.680;2023-07-30T14:20:12;23.60;99.90
5689;DHT22;2869;50.432;8.680;2023-07-30T14:22:38;23.90;99.90
5689;DHT22;2869;50.432;8.680;2023-07-30T14:25:06;24.00;99.90
5689;DHT22;2869;50.432;8.680;2023-07-30T14:27:34;24.00;99.90
5689;DHT22;2869;50.432;8.680;2023-07-30T14:30:01;24.20;99.90
5689;DHT22;2869;50.432;8.680;2023-07-30T14:32:27;23.80;99.90
5689;DHT22;2869;50.432;8.680;2023-07-30T14:34:54;23.40;99.90
5689;DHT22;2869;50.432;8.680;2023-07-30T14:37:21;22.90;99.90
5689;DHT22;2869;50.432;8.680;2023-07-30T14:39:47;22.40;99.90
5689;DHT22;2869;50.432;8.680;2023-07-30T14:42:14;22.20;99.90
5689;DHT22;2869;50.432;8.680;2023-07-30T14:44:42;22.50;99.90
5689;DHT22;2869;50.432;8.680;2023-07-30T14:47:08;23.00;99.90
5689;DHT22;2869;50.432;8.680;2023-07-30T14:49:35;23.40;99.90
5689;DHT22;2869;50.432;8.680;2023-07-30T14:52:03;23.50;99.90
5689;DHT22;2869;50.432;8.680;2023-07-30T14:54:30;23.70;99.90
5689;DHT22;2869;50.432;8.680;2023-07-30T14:56:56;23.80;99.90
5689;DHT22;2869;50.432;8.680;2023-07-30T14:59:23;23.60;99.90
5689;DHT22;2869;50.432;8.680;2023-07-30T15:01:52;23.40;99.90
5689;DHT22;2869;50.432;8.680;2023-07-30T15:04:18;23.20;99.90
5689;DHT22;2869;50.432;8.680;2023-07-30T15:06:45;23.10;99.90
5689;DHT22;2869;50.432;8.680;2023-07-30T15:09:12;23.20;99.90
5689;DHT22;2869;50.432;8.680;2023-07-30T15:11:38;23.40;99.90
5689;DHT22;2869;50.432;8.680;2023-07-30T15:14:05;23.40;99.90
5689;DHT22;2869;50.432;8.680;2023-07-30T15:16:32;23.40;99.90
5689;DHT22;2869;50.432;8.680;2023-07-30T15:19:00;23.40;99.90
5689;DHT22;2869;50.432;8.680;2023-07-30T15:21:29;23.50;99.90
5689;DHT22;2869;50.432;8.680;2023-07-30T15:23:55;23.70;99.90
5689;DHT22;2869;50.432;8.680;2023-07-30T15:26:23;23.60;99.90
5689;DHT22;2869;50.432;8.680;2023-07-30T15:28:50;23.40;99.90
5689;DHT22;2869;50.432;8.680;2023-07-30T15:31:16;23.40;99.90
5689;DHT22;2869;50.432;8.680;2023-07-30T15:33:43;23.60;99.90
5689;DHT22;2869;50.432;8.680;2023-07-30T15:36:11;23.30;99.90
5689;DHT22;2869;50.432;8.680;2023-07-30T15:38:38;23.50;99.90
5689;DHT22;2869;50.432;8.680;2023-07-30T15:41:05;23.30;99.90
5689;DHT22;2869;50.432;8.680;2023-07-30T15:43:31;23.20;99.90
5689;DHT22;2869;50.432;8.680;2023-07-30T15:45:58;22.90;99.90
5689;DHT22;2869;50.432;8.680;2023-07-30T15:48:27;22.90;99.90
5689;DHT22;2869;50.432;8.680;2023-07-30T15:50:54;22.70;99.90
5689;DHT22;2869;50.432;8.680;2023-07-30T15:53:22;22.70;99.90
5689;DHT22;2869;50.432;8.680;2023-07-30T15:55:49;22.70;99.90
5689;DHT22;2869;50.432;8.680;2023-07-30T15:58:15;22.70;99.90
5689;DHT22;2869;50.432;8.680;2023-07-30T16:00:42;22.70;99.90
5689;DHT22;2869;50.432;8.680;2023-07-30T16:03:09;22.80;99.90